Time;durP1;ratioP1;P1;durP2;ratioP2;P2;SDS_P1;SDS_P2;PMS_P1;PMS_P2;Temp;Humidity;BMP_temperature;BMP_pressure;BME280_temperature;BME280_humidity;BME280_pressure;Samples;Min_cycle;Max_cycle;Signal;HPM_P1;HPM_P2
2021/08/11 00:01:23;;;;;;;9.07;7.53;;;16.70;99.90;;;;;;5073358;28;20559;-71
2021/08/11 00:03:49;;;;;;;8.73;6.80;;;16.60;99.90;;;;;;5073865;28;20575;-71
2021/08/11 00:06:15;;;;;;;9.70;7.40;;;16.60;99.90;;;;;;5073666;28;20252;-70
2021/08/11 00:08:43;;;;;;;8.43;6.43;;;16.60;99.90;;;;;;5074187;28;20151;-70
2021/08/11 00:11:09;;;;;;;11.07;7.20;;;16.50;99.90;;;;;;5073250;28;20430;-71
2021/08/11 00:13:34;;;;;;;10.03;7.03;;;16.50;99.90;;;;;;5086480;28;20456;-70
2021/08/11 00:16:00;;;;;;;10.83;7.70;;;16.50;99.90;;;;;;5093360;28;20151;-70
2021/08/11 00:18:25;;;;;;;8.40;7.07;;;16.40;99.90;;;;;;5093284;28;20523;-70
2021/08/11 00:20:51;;;;;;;11.20;7.80;;;16.40;99.90;;;;;;5092469;28;20175;-70
2021/08/11 00:23:17;;;;;;;11.93;7.67;;;16.40;99.90;;;;;;5093790;28;20170;-71
2021/08/11 00:25:42;;;;;;;7.73;6.53;;;16.40;99.90;;;;;;5092981;28;20173;-71
2021/08/11 00:28:09;;;;;;;9.60;7.60;;;16.40;99.90;;;;;;5093091;28;20159;-71
2021/08/11 00:30:34;;;;;;;8.37;7.40;;;16.30;99.90;;;;;;5093012;28;20200;-71
2021/08/11 00:33:00;;;;;;;7.53;6.47;;;16.40;99.90;;;;;;5093521;28;20499;-71
2021/08/11 00:35:25;;;;;;;9.10;7.00;;;16.40;99.90;;;;;;5093116;28;20159;-70
2021/08/11 00:37:51;;;;;;;8.67;6.93;;;16.30;99.90;;;;;;5092868;28;20538;-70
2021/08/11 00:40:19;;;;;;;10.90;7.67;;;16.30;99.90;;;;;;5092065;28;20186;-71
2021/08/11 00:42:46;;;;;;;9.10;6.87;;;16.30;99.90;;;;;;5092911;28;20216;-71
2021/08/11 00:45:14;;;;;;;11.83;8.60;;;16.30;99.90;;;;;;5093408;28;20397;-71
2021/08/11 00:47:39;;;;;;;15.20;10.40;;;16.30;99.90;;;;;;5092786;28;20472;-70
2021/08/11 00:50:06;;;;;;;16.27;10.80;;;16.20;99.90;;;;;;5093116;28;20491;-70
2021/08/11 00:52:32;;;;;;;16.83;10.83;;;16.20;99.90;;;;;;5093378;28;20151;-70
2021/08/11 00:54:58;;;;;;;15.90;10.83;;;16.20;99.90;;;;;;5091853;28;20466;-70
2021/08/11 00:57:26;;;;;;;20.60;13.03;;;16.20;99.90;;;;;;5091860;28;20181;-71
2021/08/11 00:59:55;;;;;;;15.87;10.07;;;16.20;99.90;;;;;;5092551;28;20416;-70
2021/08/11 01:02:22;;;;;;;15.03;10.60;;;16.10;99.90;;;;;;5092409;28;20397;-70
2021/08/11 01:04:49;;;;;;;15.70;10.37;;;16.10;99.90;;;;;;5092853;28;20388;-71
2021/08/11 01:07:16;;;;;;;15.10;11.50;;;16.10;99.90;;;;;;5092819;28;20972;-71
2021/08/11 01:09:42;;;;;;;25.73;13.13;;;16.10;99.90;;;;;;5092704;28;20389;-70
2021/08/11 01:12:08;;;;;;;23.63;14.53;;;16.00;99.90;;;;;;5082702;28;20429;-70
2021/08/11 01:14:34;;;;;;;34.70;19.90;;;16.00;99.90;;;;;;5072829;28;20417;-70
2021/08/11 01:17:04;;;;;;;30.97;18.00;;;16.00;99.90;;;;;;5073061;28;20180;-70
2021/08/11 01:19:31;;;;;;;23.63;14.70;;;16.00;99.90;;;;;;5072562;28;20191;-70
2021/08/11 01:22:04;;;;;;;17.00;12.00;;;16.00;99.90;;;;;;5072734;28;20405;-71
2021/08/11 01:28:21;;;;;;;16.50;10.10;;;15.90;99.90;;;;;;5069821;28;20516;-71
2021/08/11 01:36:50;;;;;;;11.63;8.67;;;15.90;99.90;;;;;;5070271;28;20530;-71
2021/08/11 01:39:35;;;;;;;10.30;8.83;;;15.90;99.90;;;;;;5068819;28;20428;-72
2021/08/11 01:45:04;;;;;;;12.83;9.03;;;15.80;99.90;;;;;;5069837;28;20994;-73
2021/08/11 01:47:37;;;;;;;13.50;10.60;;;15.80;99.90;;;;;;5050416;28;20413;-73
2021/08/11 01:50:03;;;;;;;17.33;11.17;;;15.80;99.90;;;;;;5050020;28;20387;-73
2021/08/11 01:52:29;;;;;;;13.83;10.63;;;15.80;99.90;;;;;;5049756;28;20394;-73
2021/08/11 01:54:55;;;;;;;17.30;11.07;;;15.80;99.90;;;;;;5049969;28;20478;-73
2021/08/11 01:57:22;;;;;;;20.20;11.80;;;15.80;99.90;;;;;;5049654;28;20391;-73
2021/08/11 01:59:48;;;;;;;18.10;11.77;;;15.80;99.90;;;;;;5049639;28;20474;-73
2021/08/11 02:02:14;;;;;;;17.40;12.10;;;15.80;99.90;;;;;;5050073;28;20383;-73
2021/08/11 02:04:41;;;;;;;18.53;12.10;;;15.80;99.90;;;;;;5050056;28;20951;-73
2021/08/11 02:07:07;;;;;;;20.50;12.90;;;15.80;99.90;;;;;;5049582;28;20391;-73
2021/08/11 02:09:35;;;;;;;19.97;14.70;;;15.80;99.90;;;;;;5049724;28;20399;-73
2021/08/11 02:12:01;;;;;;;28.20;14.07;;;15.80;99.90;;;;;;5049201;28;20418;-73
2021/08/11 02:14:27;;;;;;;20.90;14.07;;;15.70;99.90;;;;;;5049302;28;20474;-73
2021/08/11 02:16:52;;;;;;;17.40;12.33;;;15.70;99.90;;;;;;5049321;28;20160;-73
2021/08/11 02:19:18;;;;;;;20.03;11.60;;;15.70;99.90;;;;;;5049931;28;20434;-73
2021/08/11 02:21:44;;;;;;;14.80;10.93;;;15.70;99.90;;;;;;5049970;28;20180;-73
2021/08/11 02:24:12;;;;;;;14.90;10.20;;;15.70;99.90;;;;;;5049189;28;20180;-73
2021/08/11 02:27:00;;;;;;;14.40;10.00;;;15.60;99.90;;;;;;5049123;28;20449;-73
2021/08/11 02:32:48;;;;;;;15.80;9.37;;;15.60;99.90;;;;;;5070404;28;20586;-71
2021/08/11 02:40:54;;;;;;;12.97;9.07;;;15.50;99.90;;;;;;5070437;28;20505;-71
2021/08/11 02:43:29;;;;;;;15.50;10.07;;;15.40;99.90;;;;;;5070030;28;20401;-71
2021/08/11 02:45:59;;;;;;;11.67;9.20;;;15.40;99.90;;;;;;5069798;28;20748;-71
2021/08/11 02:48:26;;;;;;;19.93;10.30;;;15.40;99.90;;;;;;5069919;28;20390;-71
2021/08/11 02:50:52;;;;;;;14.63;9.67;;;15.40;99.90;;;;;;5069625;28;20418;-71
2021/08/11 02:53:22;;;;;;;13.27;9.50;;;15.40;99.90;;;;;;5067124;28;20934;-71
2021/08/11 02:55:48;;;;;;;12.87;8.47;;;15.40;99.90;;;;;;5050068;28;20184;-71
2021/08/11 02:58:16;;;;;;;14.53;10.60;;;15.40;99.90;;;;;;5049528;28;20473;-71
2021/08/11 03:00:42;;;;;;;15.30;10.77;;;15.40;99.90;;;;;;5049978;28;20397;-72
2021/08/11 03:03:08;;;;;;;17.87;11.50;;;15.40;99.90;;;;;;5049637;28;20391;-72
2021/08/11 03:05:35;;;;;;;18.50;10.27;;;15.40;99.90;;;;;;5049510;28;20181;-72
2021/08/11 03:08:02;;;;;;;15.07;8.90;;;15.40;99.90;;;;;;5049332;28;21014;-72
2021/08/11 03:10:28;;;;;;;15.17;10.20;;;15.40;99.90;;;;;;5049822;28;20411;-72
2021/08/11 03:12:54;;;;;;;16.27;10.70;;;15.40;99.90;;;;;;5049742;28;20497;-72
2021/08/11 03:15:20;;;;;;;14.70;10.27;;;15.40;99.90;;;;;;5049209;28;20391;-72
2021/08/11 03:17:46;;;;;;;15.27;11.27;;;15.40;99.90;;;;;;5049503;28;20399;-72
2021/08/11 03:20:12;;;;;;;16.73;11.03;;;15.40;99.90;;;;;;5049049;28;20438;-72
2021/08/11 03:22:38;;;;;;;17.10;10.13;;;15.40;99.90;;;;;;5049300;28;20522;-72
2021/08/11 03:25:04;;;;;;;16.47;11.00;;;15.40;99.90;;;;;;5049045;28;20394;-72
2021/08/11 03:27:30;;;;;;;17.47;10.27;;;15.40;99.90;;;;;;5049579;28;20176;-72
2021/08/11 03:29:55;;;;;;;15.67;10.43;;;15.40;99.90;;;;;;5049486;28;20477;-72
2021/08/11 03:32:21;;;;;;;16.20;9.23;;;15.40;99.90;;;;;;5049128;28;20161;-72
2021/08/11 03:34:46;;;;;;;19.43;9.87;;;15.40;99.90;;;;;;5049106;28;20166;-72
2021/08/11 03:37:16;;;;;;;14.40;9.87;;;15.50;99.90;;;;;;5049116;28;20203;-72
2021/08/11 03:39:41;;;;;;;15.67;9.27;;;15.50;99.90;;;;;;5048564;28;20201;-72
2021/08/11 03:42:07;;;;;;;13.47;9.77;;;15.40;99.90;;;;;;5048748;28;20402;-72
2021/08/11 03:44:33;;;;;;;14.10;9.63;;;15.40;99.90;;;;;;5049231;28;20207;-72
2021/08/11 03:46:58;;;;;;;13.23;9.73;;;15.40;99.90;;;;;;5049294;28;20442;-72
2021/08/11 03:49:24;;;;;;;15.80;10.37;;;15.50;99.90;;;;;;5048632;28;20149;-72
2021/08/11 03:51:49;;;;;;;16.17;10.20;;;15.50;99.90;;;;;;5036732;28;20164;-72
2021/08/11 03:54:15;;;;;;;16.10;10.00;;;15.50;99.90;;;;;;5035312;28;20509;-72
2021/08/11 03:56:41;;;;;;;14.70;9.70;;;15.50;99.90;;;;;;5035243;28;20618;-72
2021/08/11 03:59:06;;;;;;;13.93;9.23;;;15.50;99.90;;;;;;5035119;28;20193;-72
2021/08/11 04:01:32;;;;;;;19.43;9.37;;;15.50;99.90;;;;;;5036059;28;20181;-72
2021/08/11 04:03:57;;;;;;;13.17;8.60;;;15.60;99.90;;;;;;5035730;28;20180;-72
2021/08/11 04:06:23;;;;;;;14.47;9.70;;;15.60;99.90;;;;;;5035498;28;20149;-72
2021/08/11 04:08:48;;;;;;;15.53;9.33;;;15.60;99.90;;;;;;5034938;28;20688;-72
2021/08/11 04:11:14;;;;;;;15.10;9.77;;;15.60;99.90;;;;;;5034845;28;20536;-72
2021/08/11 04:13:39;;;;;;;14.47;10.47;;;15.60;99.90;;;;;;5034934;28;20362;-72
2021/08/11 04:16:05;;;;;;;16.33;10.27;;;15.60;99.90;;;;;;5035662;28;20536;-72
2021/08/11 04:18:31;;;;;;;19.73;11.73;;;15.70;99.90;;;;;;5035574;28;20192;-72
2021/08/11 04:20:56;;;;;;;22.70;11.97;;;15.70;99.90;;;;;;5035378;28;20200;-72
2021/08/11 04:23:22;;;;;;;19.70;12.83;;;15.70;99.90;;;;;;5045034;28;20195;-72
2021/08/11 04:25:48;;;;;;;21.57;11.87;;;15.70;99.90;;;;;;5043089;28;20184;-72
2021/08/11 04:28:13;;;;;;;23.23;13.83;;;15.80;99.90;;;;;;5034079;28;20176;-72
2021/08/11 04:30:40;;;;;;;21.93;12.93;;;15.80;99.90;;;;;;5044063;28;20183;-72
2021/08/11 04:33:07;;;;;;;21.03;12.17;;;15.80;99.90;;;;;;5049544;28;20595;-72
2021/08/11 04:35:32;;;;;;;18.90;12.10;;;15.80;99.90;;;;;;5038619;28;20435;-72
2021/08/11 04:37:58;;;;;;;25.43;12.63;;;15.80;99.90;;;;;;5040405;28;20427;-72
2021/08/11 04:40:24;;;;;;;17.63;11.60;;;15.80;99.90;;;;;;5036312;28;20203;-72
2021/08/11 04:42:50;;;;;;;20.13;11.40;;;15.80;99.90;;;;;;5031808;28;20431;-72
2021/08/11 04:45:15;;;;;;;20.10;10.80;;;15.80;99.90;;;;;;5034511;28;20242;-72
2021/08/11 04:47:41;;;;;;;17.53;8.77;;;15.80;99.90;;;;;;5038730;28;20177;-72
2021/08/11 04:50:07;;;;;;;19.13;10.03;;;15.80;99.90;;;;;;5040264;28;20637;-72
2021/08/11 04:52:33;;;;;;;17.90;12.20;;;15.90;99.90;;;;;;5034025;28;20181;-72
2021/08/11 04:55:01;;;;;;;18.47;10.87;;;15.80;99.90;;;;;;5039280;28;20451;-72
2021/08/11 04:57:26;;;;;;;17.90;11.03;;;15.80;99.90;;;;;;5041209;28;20198;-72
2021/08/11 04:59:52;;;;;;;18.13;11.70;;;15.90;99.90;;;;;;5043094;28;20471;-72
2021/08/11 05:02:17;;;;;;;19.43;10.37;;;15.90;99.90;;;;;;5043979;28;20176;-72
2021/08/11 05:04:43;;;;;;;17.70;9.70;;;16.00;99.90;;;;;;5041577;28;20180;-72
2021/08/11 05:07:09;;;;;;;19.60;9.87;;;16.00;99.90;;;;;;5036868;28;20180;-72
2021/08/11 05:09:35;;;;;;;19.67;10.73;;;16.00;99.90;;;;;;5038102;28;20340;-72
2021/08/11 05:12:01;;;;;;;17.70;9.10;;;16.00;99.90;;;;;;5040879;28;21006;-72
2021/08/11 05:14:27;;;;;;;12.60;7.67;;;16.10;99.90;;;;;;5048182;28;20557;-72
2021/08/11 05:16:53;;;;;;;13.30;7.87;;;16.10;99.90;;;;;;5032621;28;20200;-72
2021/08/11 05:19:19;;;;;;;12.23;8.10;;;16.20;99.90;;;;;;5037653;28;20869;-72
2021/08/11 05:21:44;;;;;;;14.90;9.30;;;16.20;99.90;;;;;;5035569;28;20180;-72
2021/08/11 05:24:11;;;;;;;19.90;10.90;;;16.30;99.90;;;;;;5036376;28;20179;-72
2021/08/11 05:26:37;;;;;;;15.33;8.97;;;16.40;99.90;;;;;;5039942;28;20638;-72
2021/08/11 05:29:03;;;;;;;10.50;7.23;;;16.40;99.90;;;;;;5036176;28;20669;-72
2021/08/11 05:31:29;;;;;;;11.10;7.30;;;16.50;99.90;;;;;;5033981;28;20184;-72
2021/08/11 05:33:55;;;;;;;14.10;7.97;;;16.60;99.90;;;;;;5031564;28;20653;-72
2021/08/11 05:36:21;;;;;;;12.83;7.83;;;16.60;99.90;;;;;;5047163;28;20496;-72
2021/08/11 05:38:46;;;;;;;12.87;8.23;;;16.70;99.90;;;;;;5045595;28;20212;-72
2021/08/11 05:41:12;;;;;;;10.20;7.43;;;16.70;99.90;;;;;;5038247;28;20634;-72
2021/08/11 05:43:37;;;;;;;11.33;8.00;;;16.80;99.90;;;;;;5032798;28;20712;-72
2021/08/11 05:46:05;;;;;;;12.00;8.40;;;16.80;99.90;;;;;;5042217;28;20180;-72
2021/08/11 05:48:30;;;;;;;8.00;6.40;;;17.00;99.90;;;;;;5040327;28;20190;-73
2021/08/11 05:50:56;;;;;;;7.43;6.20;;;17.00;99.90;;;;;;5036869;28;20912;-73
2021/08/11 05:53:22;;;;;;;9.50;6.30;;;17.10;99.90;;;;;;5034378;28;20199;-73
2021/08/11 05:55:47;;;;;;;9.80;7.60;;;17.20;99.90;;;;;;5034923;28;20284;-72
2021/08/11 05:58:13;;;;;;;10.93;7.80;;;17.30;99.90;;;;;;5038791;28;20176;-73
2021/08/11 06:00:38;;;;;;;13.50;10.00;;;17.30;99.90;;;;;;5036659;28;20203;-73
2021/08/11 06:03:04;;;;;;;11.97;8.40;;;17.40;99.90;;;;;;5037487;28;20271;-73
2021/08/11 06:05:30;;;;;;;14.27;9.17;;;17.30;99.90;;;;;;5037426;28;20269;-73
2021/08/11 06:07:56;;;;;;;15.60;10.93;;;17.30;99.90;;;;;;5040522;28;20890;-72
2021/08/11 06:10:21;;;;;;;15.80;9.47;;;17.40;99.90;;;;;;5038638;28;20204;-72
2021/08/11 06:12:51;;;;;;;14.97;9.37;;;17.40;99.90;;;;;;5039863;28;20181;-73
2021/08/11 06:15:20;;;;;;;13.97;9.03;;;17.50;99.90;;;;;;5036735;28;20180;-73
2021/08/11 06:17:47;;;;;;;15.30;11.00;;;17.50;99.90;;;;;;5039966;28;20481;-73
2021/08/11 06:20:14;;;;;;;13.27;10.07;;;17.50;99.90;;;;;;5033447;28;20459;-73
2021/08/11 06:22:41;;;;;;;14.00;10.10;;;17.60;99.90;;;;;;5038749;28;20497;-73
2021/08/11 06:25:07;;;;;;;15.47;10.47;;;17.70;99.90;;;;;;5037114;28;20528;-73
2021/08/11 06:27:32;;;;;;;14.50;10.53;;;17.80;99.90;;;;;;5038480;28;20465;-73
2021/08/11 06:29:58;;;;;;;18.60;11.30;;;17.80;99.90;;;;;;5037056;28;20439;-73
2021/08/11 06:32:24;;;;;;;17.17;11.73;;;17.90;99.90;;;;;;5036676;28;20657;-73
2021/08/11 06:34:49;;;;;;;17.67;12.77;;;17.90;99.90;;;;;;5037774;28;20556;-73
2021/08/11 06:37:15;;;;;;;18.60;10.93;;;18.00;99.90;;;;;;5032286;28;20220;-73
2021/08/11 06:39:40;;;;;;;19.70;12.93;;;18.00;99.90;;;;;;5039003;28;20220;-73
2021/08/11 06:42:06;;;;;;;23.30;12.63;;;18.20;99.90;;;;;;5040158;28;20179;-73
2021/08/11 06:44:31;;;;;;;20.70;12.97;;;18.30;99.90;;;;;;5036368;28;20215;-73
2021/08/11 06:46:57;;;;;;;21.83;14.00;;;18.40;99.90;;;;;;5040110;28;20586;-73
2021/08/11 06:49:23;;;;;;;20.13;12.63;;;18.50;99.90;;;;;;5038734;28;20707;-73
2021/08/11 06:51:48;;;;;;;22.50;12.67;;;18.60;99.90;;;;;;5036697;28;20249;-73
2021/08/11 06:54:14;;;;;;;23.10;13.90;;;18.70;99.90;;;;;;5038512;28;20668;-73
2021/08/11 06:56:40;;;;;;;21.50;13.33;;;18.70;99.90;;;;;;5035991;28;20672;-73
2021/08/11 06:59:06;;;;;;;19.77;13.10;;;18.80;99.90;;;;;;5033784;28;20458;-73
2021/08/11 07:01:32;;;;;;;23.73;13.97;;;18.90;99.90;;;;;;5035846;28;20183;-73
2021/08/11 07:03:57;;;;;;;20.80;12.70;;;19.10;99.90;;;;;;5032743;28;20238;-73
2021/08/11 07:06:23;;;;;;;19.73;12.17;;;19.30;99.90;;;;;;5036680;28;20183;-73
2021/08/11 07:08:48;;;;;;;20.50;12.60;;;19.40;99.90;;;;;;5027672;28;20185;-73
2021/08/11 07:11:14;;;;;;;20.87;11.23;;;19.60;99.90;;;;;;5033422;28;20672;-73
2021/08/11 07:13:40;;;;;;;19.93;11.93;;;19.80;99.90;;;;;;5035303;28;20187;-73
2021/08/11 07:16:05;;;;;;;22.73;14.00;;;19.90;99.90;;;;;;5036558;28;20196;-73
2021/08/11 07:18:31;;;;;;;17.93;11.83;;;20.10;99.90;;;;;;5035421;28;20204;-73
2021/08/11 07:20:58;;;;;;;17.10;12.20;;;20.20;99.90;;;;;;5035602;28;20177;-73
2021/08/11 07:23:23;;;;;;;16.13;9.97;;;20.40;99.90;;;;;;5039341;28;20173;-73
2021/08/11 07:25:49;;;;;;;21.07;13.13;;;20.40;99.90;;;;;;5037871;28;20430;-73
2021/08/11 07:28:15;;;;;;;16.50;10.97;;;20.50;99.90;;;;;;5048607;28;20276;-73
2021/08/11 07:30:42;;;;;;;16.60;11.70;;;20.50;99.90;;;;;;5042561;28;20226;-73
2021/08/11 07:33:09;;;;;;;13.70;10.93;;;20.60;99.90;;;;;;5036883;28;20264;-73
2021/08/11 07:35:36;;;;;;;16.13;11.10;;;20.60;99.90;;;;;;5037442;28;20427;-73
2021/08/11 07:38:02;;;;;;;12.97;9.70;;;20.70;99.90;;;;;;5039692;28;20995;-73
2021/08/11 07:40:28;;;;;;;12.83;9.10;;;21.00;99.90;;;;;;5034605;28;20467;-73
2021/08/11 07:42:55;;;;;;;16.40;11.10;;;21.20;99.90;;;;;;5040938;28;20452;-73
2021/08/11 07:45:21;;;;;;;15.70;11.27;;;21.40;99.90;;;;;;5039916;28;20525;-73
2021/08/11 07:47:48;;;;;;;13.23;10.33;;;21.70;99.90;;;;;;5038803;28;20434;-73
2021/08/11 07:50:16;;;;;;;13.43;10.63;;;22.10;99.90;;;;;;5038469;28;20443;-73
2021/08/11 07:52:42;;;;;;;8.40;6.93;;;22.60;99.90;;;;;;5039065;28;20435;-73
2021/08/11 07:55:08;;;;;;;11.90;7.97;;;23.10;99.90;;;;;;5037027;28;20434;-73
2021/08/11 07:57:34;;;;;;;10.33;8.10;;;23.70;99.90;;;;;;5037666;28;20461;-73
2021/08/11 08:00:00;;;;;;;8.50;6.63;;;24.20;99.90;;;;;;5034836;28;20831;-71
2021/08/11 08:02:26;;;;;;;6.77;5.93;;;24.60;99.90;;;;;;5037636;28;20645;-73
2021/08/11 08:04:51;;;;;;;7.20;5.83;;;25.00;99.90;;;;;;5038570;28;20435;-74
2021/08/11 08:07:17;;;;;;;8.63;5.93;;;25.40;99.90;;;;;;5035779;28;20637;-74
2021/08/11 08:09:42;;;;;;;5.27;4.60;;;25.80;99.90;;;;;;5043275;28;20556;-74
2021/08/11 08:12:08;;;;;;;6.60;5.90;;;26.40;99.90;;;;;;5051016;28;20184;-74
2021/08/11 08:14:34;;;;;;;8.13;5.90;;;27.20;99.90;;;;;;5034121;28;20180;-73
2021/08/11 08:16:59;;;;;;;5.67;4.70;;;27.90;99.90;;;;;;5044483;28;20207;-74
2021/08/11 08:19:25;;;;;;;4.77;4.20;;;28.50;99.90;;;;;;5036753;28;20242;-74
2021/08/11 08:21:53;;;;;;;7.10;4.67;;;29.00;98.90;;;;;;5037753;28;20645;-74
2021/08/11 08:24:20;;;;;;;4.60;4.07;;;29.40;97.50;;;;;;5037784;28;20184;-74
2021/08/11 08:26:45;;;;;;;5.40;4.40;;;29.60;96.40;;;;;;5036154;28;20441;-74
2021/08/11 08:29:11;;;;;;;4.70;4.17;;;30.00;94.70;;;;;;5038599;28;20435;-74
2021/08/11 08:31:36;;;;;;;4.10;3.23;;;30.60;93.30;;;;;;5037362;28;20184;-74
2021/08/11 08:34:02;;;;;;;3.87;3.40;;;31.30;91.10;;;;;;5035671;28;20311;-74
2021/08/11 08:36:27;;;;;;;4.07;2.53;;;31.90;87.40;;;;;;5041847;28;20255;-74
2021/08/11 08:38:53;;;;;;;3.77;3.10;;;32.50;81.70;;;;;;5039515;28;20630;-74
2021/08/11 08:41:18;;;;;;;3.47;2.90;;;33.20;75.70;;;;;;5038739;28;20577;-74
2021/08/11 08:43:44;;;;;;;3.10;2.80;;;33.80;72.70;;;;;;5036321;28;20181;-74
2021/08/11 08:46:11;;;;;;;5.80;3.33;;;33.90;69.00;;;;;;5036813;28;20195;-74
2021/08/11 08:48:40;;;;;;;4.03;3.10;;;33.70;70.20;;;;;;5041870;28;20206;-74
2021/08/11 08:51:08;;;;;;;4.17;3.77;;;32.80;70.80;;;;;;5033540;28;20422;-74
2021/08/11 08:53:34;;;;;;;5.63;3.33;;;32.00;73.20;;;;;;5032716;28;20423;-74
2021/08/11 08:56:00;;;;;;;2.63;2.43;;;31.50;75.00;;;;;;5033888;28;20438;-74
2021/08/11 08:58:26;;;;;;;3.70;3.13;;;31.20;75.00;;;;;;5039414;28;20428;-74
2021/08/11 09:00:51;;;;;;;2.80;2.23;;;31.40;73.60;;;;;;5033898;28;20470;-74
2021/08/11 09:03:17;;;;;;;2.67;2.20;;;31.90;71.70;;;;;;5036324;28;20302;-74
2021/08/11 09:05:43;;;;;;;3.13;2.83;;;32.10;72.20;;;;;;5040810;28;20173;-74
2021/08/11 09:08:08;;;;;;;3.93;3.40;;;32.30;69.50;;;;;;5035665;28;20197;-74
2021/08/11 09:10:38;;;;;;;5.80;3.47;;;32.60;68.00;;;;;;5035023;28;20243;-74
2021/08/11 09:13:08;;;;;;;3.47;3.00;;;32.90;68.80;;;;;;5040086;28;20281;-74
2021/08/11 09:18:15;;;;;;;3.00;2.70;;;33.10;67.30;;;;;;5053343;28;20596;-72
2021/08/11 09:20:42;;;;;;;3.70;3.30;;;33.10;66.40;;;;;;5047839;28;20438;-72
2021/08/11 09:23:08;;;;;;;3.70;3.23;;;32.90;66.20;;;;;;5045032;28;20450;-72
2021/08/11 09:25:34;;;;;;;4.20;3.27;;;32.80;66.60;;;;;;5049728;28;20874;-72
2021/08/11 09:27:59;;;;;;;3.83;3.43;;;32.80;67.80;;;;;;5050819;28;20176;-72
2021/08/11 09:30:31;;;;;;;4.63;3.90;;;32.60;68.20;;;;;;5035779;28;20822;-72
2021/08/11 09:33:01;;;;;;;3.83;3.50;;;32.40;66.60;;;;;;5033611;28;20200;-72
2021/08/11 09:35:38;;;;;;;3.77;3.47;;;32.00;66.20;;;;;;5051152;28;20919;-72
2021/08/11 09:38:07;;;;;;;5.40;4.87;;;31.80;69.10;;;;;;5034075;28;21066;-72
2021/08/11 09:40:34;;;;;;;3.60;3.30;;;31.60;68.00;;;;;;5031843;28;20998;-72
2021/08/11 09:43:12;;;;;;;3.47;3.00;;;31.40;70.00;;;;;;5036869;28;20795;-73
2021/08/11 09:45:46;;;;;;;7.17;3.50;;;31.10;70.60;;;;;;5036555;28;20435;-73
2021/08/11 09:48:13;;;;;;;3.50;3.20;;;30.70;69.70;;;;;;5035929;28;20455;-73
2021/08/11 09:53:23;;;;;;;3.10;2.80;;;30.30;72.60;;;;;;5063261;27;20568;-74
2021/08/11 09:56:01;;;;;;;4.37;2.70;;;29.30;73.30;;;;;;5057621;28;20438;-74
2021/08/11 09:58:28;;;;;;;4.87;3.30;;;29.00;76.20;;;;;;5040222;28;20916;-74
2021/08/11 10:00:54;;;;;;;4.83;3.67;;;28.60;76.00;;;;;;5037546;28;20449;-74
2021/08/11 10:03:19;;;;;;;4.00;3.17;;;28.40;77.70;;;;;;5036957;28;20437;-74
2021/08/11 10:05:45;;;;;;;4.37;3.10;;;28.20;81.00;;;;;;5036634;28;20191;-74
2021/08/11 10:08:11;;;;;;;4.47;3.67;;;28.00;79.60;;;;;;5040263;28;20180;-74
2021/08/11 10:10:47;;;;;;;6.07;3.63;;;27.70;80.10;;;;;;5035383;28;20700;-74
2021/08/11 10:13:18;;;;;;;4.60;3.80;;;27.50;82.40;;;;;;5039196;28;20210;-74
2021/08/11 10:15:47;;;;;;;4.30;3.37;;;27.30;82.70;;;;;;5041057;28;20430;-74
2021/08/11 10:18:17;;;;;;;3.80;3.43;;;27.20;85.30;;;;;;5039556;28;20448;-74
2021/08/11 10:20:45;;;;;;;3.83;3.40;;;27.10;85.30;;;;;;5038428;28;21318;-74
2021/08/11 10:23:14;;;;;;;4.90;3.90;;;27.00;86.80;;;;;;5039881;28;20441;-74
2021/08/11 10:25:40;;;;;;;5.43;4.33;;;26.90;85.60;;;;;;5040535;28;20504;-74
2021/08/11 10:28:06;;;;;;;5.33;4.27;;;26.80;86.80;;;;;;5035277;28;20478;-74
2021/08/11 10:30:32;;;;;;;4.57;4.17;;;26.60;90.00;;;;;;5041697;28;20481;-74
2021/08/11 10:32:58;;;;;;;5.50;5.00;;;26.40;90.60;;;;;;5056492;28;20467;-75
2021/08/11 10:35:23;;;;;;;5.00;4.50;;;26.20;90.80;;;;;;5038817;28;20549;-74
2021/08/11 10:37:49;;;;;;;5.50;4.30;;;26.20;92.40;;;;;;5037077;28;20263;-74
2021/08/11 10:40:15;;;;;;;6.63;4.73;;;26.20;91.90;;;;;;5037351;28;20187;-74
2021/08/11 10:42:55;;;;;;;5.93;4.93;;;26.10;91.00;;;;;;5034020;28;20797;-74
2021/08/11 10:45:22;;;;;;;5.87;5.33;;;26.10;92.30;;;;;;5043422;28;20261;-74
2021/08/11 10:47:48;;;;;;;6.23;5.63;;;26.10;91.80;;;;;;5040116;28;20437;-74
2021/08/11 10:50:14;;;;;;;5.57;4.93;;;26.20;92.80;;;;;;5040466;28;20430;-74
2021/08/11 10:52:39;;;;;;;4.90;4.50;;;26.30;94.20;;;;;;5035480;28;20216;-74
2021/08/11 10:55:06;;;;;;;5.20;4.77;;;26.30;91.90;;;;;;5037969;28;20195;-74
2021/08/11 10:57:35;;;;;;;4.03;3.63;;;26.10;91.50;;;;;;5041056;28;20184;-74
2021/08/11 11:00:08;;;;;;;4.50;4.10;;;25.90;90.80;;;;;;5040864;28;20448;-74
2021/08/11 11:02:40;;;;;;;4.23;3.83;;;25.90;91.60;;;;;;5039809;28;20445;-74
2021/08/11 11:05:06;;;;;;;4.27;3.77;;;25.90;93.00;;;;;;5042411;28;20431;-74
2021/08/11 11:07:32;;;;;;;4.13;3.73;;;25.90;91.50;;;;;;5021876;28;20431;-74
2021/08/11 11:10:23;;;;;;;4.43;4.03;;;25.90;92.20;;;;;;5026188;28;21681;-74
2021/08/11 11:12:48;;;;;;;4.53;3.80;;;25.90;93.00;;;;;;5023859;28;20200;-74
2021/08/11 11:15:14;;;;;;;4.70;4.27;;;25.70;94.20;;;;;;5016510;28;20431;-74
2021/08/11 11:18:09;;;;;;;4.83;4.30;;;25.60;93.90;;;;;;5031236;28;20180;-74
2021/08/11 11:20:34;;;;;;;5.37;4.90;;;25.50;93.70;;;;;;5023124;28;20173;-74
2021/08/11 11:23:01;;;;;;;4.33;3.93;;;25.40;94.00;;;;;;5018350;28;20874;-75
2021/08/11 11:25:58;;;;;;;4.60;4.00;;;25.20;94.40;;;;;;5020969;28;20173;-74
2021/08/11 11:28:48;;;;;;;4.90;3.67;;;25.20;96.50;;;;;;5026107;28;20432;-74
2021/08/11 11:31:39;;;;;;;4.03;3.63;;;25.10;95.00;;;;;;5022523;28;20463;-74
2021/08/11 11:34:43;;;;;;;6.20;4.20;;;25.20;95.70;;;;;;5026117;28;20427;-74
2021/08/11 11:37:08;;;;;;;3.97;3.67;;;25.10;94.40;;;;;;5024505;28;20515;-74
2021/08/11 11:39:53;;;;;;;4.10;3.70;;;25.10;96.60;;;;;;5015681;28;20419;-74
2021/08/11 11:42:27;;;;;;;4.53;4.13;;;25.10;96.30;;;;;;5028939;28;20672;-74
